Terminal Aerodrome Forecast
Issued by NWS

Home | Current Version | Previous Version | Text Only | Print | Product List | Glossary On
Versions: 1 2 3 4 5 6 7 8 9 10 11 12 13 14 15 16 17 18 19 20 21 22 23
000
FTUS43 KLSX 251700
TAFSUS
TAF
KSUS 251725Z 2518/2618 15007KT P6SM VCTS FEW060CB OVC150
     FM252000 17011KT P6SM SCT250
     FM260600 19005KT P6SM BKN250
     FM261400 24009KT P6SM BKN250=

USA.gov is the U.S. government's official web portal to all federal, state and local government web resources and services.